Time;durP1;ratioP1;P1;durP2;ratioP2;P2;SDS_P1;SDS_P2;PMS_P1;PMS_P2;Temp;Humidity;BMP_temperature;BMP_pressure;BME280_temperature;BME280_humidity;BME280_pressure;Samples;Min_cycle;Max_cycle;Signal;HPM_P1;HPM_P2
2022/03/02 00:01:58;;;;;;;45.30;22.52;;;;;;;;;;5027312;27;107341;-63
2022/03/02 00:04:24;;;;;;;43.80;22.08;;;;;;;;;;5041843;27;106272;-63
2022/03/02 00:06:51;;;;;;;43.40;21.50;;;;;;;;;;5029208;27;106969;-63
2022/03/02 00:09:17;;;;;;;49.80;22.27;;;;;;;;;;5036904;27;107293;-63
2022/03/02 00:11:44;;;;;;;43.60;22.25;;;;;;;;;;5019197;27;105834;-63
2022/03/02 00:14:10;;;;;;;45.80;21.55;;;;;;;;;;5032456;27;107009;-63
2022/03/02 00:16:37;;;;;;;48.60;22.90;;;;;;;;;;5036137;27;105692;-63
2022/03/02 00:19:03;;;;;;;46.42;21.98;;;;;;;;;;5031095;27;107317;-63
2022/03/02 00:21:30;;;;;;;42.13;20.75;;;;;;;;;;5034859;27;106949;-63
2022/03/02 00:23:56;;;;;;;41.08;21.83;;;;;;;;;;5024255;27;106040;-64
2022/03/02 00:26:23;;;;;;;41.28;20.92;;;;;;;;;;5034055;27;107143;-63
2022/03/02 00:28:50;;;;;;;38.15;19.38;;;;;;;;;;5033033;27;106890;-62
2022/03/02 00:31:16;;;;;;;37.97;19.73;;;;;;;;;;5031112;27;106305;-63
2022/03/02 00:33:43;;;;;;;40.65;20.48;;;;;;;;;;5033441;27;107381;-63
2022/03/02 00:36:09;;;;;;;39.97;20.30;;;;;;;;;;5036261;27;106244;-63
2022/03/02 00:38:35;;;;;;;40.90;19.27;;;;;;;;;;5024900;27;107032;-63
2022/03/02 00:41:02;;;;;;;46.03;21.58;;;;;;;;;;5030204;27;108101;-62
2022/03/02 00:43:28;;;;;;;44.03;20.35;;;;;;;;;;5034116;27;106338;-63
2022/03/02 00:45:54;;;;;;;43.80;20.73;;;;;;;;;;5038558;27;107043;-63
2022/03/02 00:48:21;;;;;;;41.45;20.02;;;;;;;;;;5029893;27;106718;-63
2022/03/02 00:50:47;;;;;;;41.28;20.88;;;;;;;;;;5031947;27;107093;-63
2022/03/02 00:53:14;;;;;;;41.58;22.35;;;;;;;;;;5024924;27;107519;-61
2022/03/02 00:55:40;;;;;;;43.33;21.95;;;;;;;;;;5036507;27;107321;-64
2022/03/02 00:58:06;;;;;;;45.88;22.60;;;;;;;;;;5027900;27;106073;-61
2022/03/02 01:00:33;;;;;;;42.83;21.45;;;;;;;;;;5029364;27;107343;-63
2022/03/02 01:02:59;;;;;;;46.65;21.48;;;;;;;;;;5033257;27;106362;-63
2022/03/02 01:05:27;;;;;;;47.45;22.50;;;;;;;;;;5027396;27;106655;-63
2022/03/02 01:07:53;;;;;;;47.30;24.20;;;;;;;;;;5035411;27;107287;-65
2022/03/02 01:10:20;;;;;;;48.58;22.33;;;;;;;;;;5033482;27;107717;-63
2022/03/02 01:12:47;;;;;;;45.97;21.50;;;;;;;;;;5032146;27;106737;-63
2022/03/02 01:15:13;;;;;;;49.13;21.73;;;;;;;;;;5032705;27;107365;-64
2022/03/02 01:17:40;;;;;;;48.90;20.70;;;;;;;;;;5038017;27;105805;-63
2022/03/02 01:20:08;;;;;;;44.15;22.52;;;;;;;;;;5032224;27;106035;-64
2022/03/02 01:22:35;;;;;;;44.63;22.30;;;;;;;;;;5031328;27;105977;-65
2022/03/02 01:25:02;;;;;;;46.75;21.55;;;;;;;;;;5030892;27;106632;-64
2022/03/02 01:27:28;;;;;;;50.08;21.95;;;;;;;;;;5034006;27;107301;-64
2022/03/02 01:29:55;;;;;;;43.33;22.00;;;;;;;;;;5027352;27;106267;-65
2022/03/02 01:32:21;;;;;;;47.30;22.58;;;;;;;;;;5038280;27;107113;-64
2022/03/02 01:34:48;;;;;;;45.85;22.40;;;;;;;;;;5021444;27;107767;-64
2022/03/02 01:37:14;;;;;;;43.50;21.83;;;;;;;;;;5037811;27;105638;-63
2022/03/02 01:39:41;;;;;;;46.10;21.48;;;;;;;;;;5043013;27;107166;-63
2022/03/02 01:42:07;;;;;;;39.20;20.67;;;;;;;;;;5053579;27;106363;-64
2022/03/02 01:44:34;;;;;;;41.65;20.13;;;;;;;;;;5025520;27;107238;-64
2022/03/02 01:47:02;;;;;;;40.35;20.80;;;;;;;;;;5025862;27;107325;-64
2022/03/02 01:49:28;;;;;;;40.45;20.10;;;;;;;;;;5030355;27;107004;-63
2022/03/02 01:51:55;;;;;;;38.78;19.40;;;;;;;;;;5034194;27;107674;-63
2022/03/02 01:54:21;;;;;;;45.78;21.77;;;;;;;;;;5025967;27;106187;-64
2022/03/02 01:56:48;;;;;;;42.63;20.45;;;;;;;;;;5015492;27;106043;-63
2022/03/02 01:59:14;;;;;;;41.53;20.80;;;;;;;;;;5030461;27;106850;-63
2022/03/02 02:01:41;;;;;;;47.97;21.73;;;;;;;;;;5038167;27;107377;-62
2022/03/02 02:04:08;;;;;;;43.22;21.17;;;;;;;;;;5031886;27;106182;-63
2022/03/02 02:06:34;;;;;;;38.72;19.67;;;;;;;;;;5031039;27;107426;-62
2022/03/02 02:09:02;;;;;;;41.25;20.30;;;;;;;;;;5041664;27;106658;-62
2022/03/02 02:11:32;;;;;;;38.55;19.05;;;;;;;;;;5022616;27;107656;-62
2022/03/02 02:13:59;;;;;;;39.30;19.90;;;;;;;;;;4984526;28;108146;-63
2022/03/02 02:16:25;;;;;;;41.58;19.58;;;;;;;;;;4992347;28;107533;-63
2022/03/02 02:18:54;;;;;;;39.42;19.80;;;;;;;;;;4991660;28;106023;-63
2022/03/02 02:21:21;;;;;;;43.35;20.58;;;;;;;;;;4991981;28;106169;-63
2022/03/02 02:23:48;;;;;;;40.05;20.23;;;;;;;;;;4976378;28;106051;-64
2022/03/02 02:26:14;;;;;;;41.03;20.42;;;;;;;;;;4989579;28;106320;-64
2022/03/02 02:28:41;;;;;;;43.15;20.48;;;;;;;;;;4992020;28;106017;-64
2022/03/02 02:31:08;;;;;;;41.40;19.65;;;;;;;;;;4991037;28;106435;-64
2022/03/02 02:33:34;;;;;;;43.28;20.27;;;;;;;;;;4990615;28;107541;-63
2022/03/02 02:36:00;;;;;;;42.60;20.23;;;;;;;;;;4977997;28;105981;-64
2022/03/02 02:38:27;;;;;;;41.92;21.77;;;;;;;;;;4988225;28;106670;-63
2022/03/02 02:40:53;;;;;;;51.28;22.60;;;;;;;;;;4991752;28;106449;-63
2022/03/02 02:43:24;;;;;;;46.00;22.35;;;;;;;;;;4989277;28;106317;-64
2022/03/02 02:45:51;;;;;;;45.38;23.08;;;;;;;;;;4994295;28;106880;-63
2022/03/02 02:48:17;;;;;;;46.40;22.67;;;;;;;;;;4990982;28;106216;-64
2022/03/02 02:50:44;;;;;;;51.55;24.15;;;;;;;;;;4991617;28;106851;-63
2022/03/02 02:53:11;;;;;;;45.72;23.25;;;;;;;;;;4989680;28;107361;-63
2022/03/02 02:55:38;;;;;;;44.83;22.95;;;;;;;;;;4991259;28;106010;-63
2022/03/02 02:58:05;;;;;;;45.75;23.00;;;;;;;;;;4991542;28;106812;-62
2022/03/02 03:00:33;;;;;;;46.42;21.88;;;;;;;;;;4989664;28;107141;-64
2022/03/02 03:03:00;;;;;;;47.00;22.63;;;;;;;;;;4991004;28;107548;-64
2022/03/02 03:05:31;;;;;;;48.42;22.38;;;;;;;;;;4990017;28;106963;-63
2022/03/02 03:08:01;;;;;;;46.03;21.63;;;;;;;;;;4992213;28;107077;-63
2022/03/02 03:10:28;;;;;;;45.45;21.25;;;;;;;;;;4989800;28;106438;-63
2022/03/02 03:12:54;;;;;;;45.03;20.65;;;;;;;;;;4982614;28;106515;-63
2022/03/02 03:15:21;;;;;;;41.78;21.25;;;;;;;;;;4988984;28;106238;-63
2022/03/02 03:17:48;;;;;;;42.80;21.00;;;;;;;;;;4991013;27;106682;-63
2022/03/02 03:20:17;;;;;;;44.47;21.75;;;;;;;;;;4989839;28;107692;-63
2022/03/02 03:22:44;;;;;;;47.40;22.35;;;;;;;;;;4990401;28;106169;-63
2022/03/02 03:25:12;;;;;;;47.80;22.02;;;;;;;;;;4990612;28;106579;-63
2022/03/02 03:27:39;;;;;;;46.38;22.00;;;;;;;;;;4990485;28;106212;-64
2022/03/02 03:30:07;;;;;;;46.83;22.30;;;;;;;;;;4985170;28;105983;-64
2022/03/02 03:32:34;;;;;;;41.20;21.67;;;;;;;;;;4989881;28;107536;-63
2022/03/02 03:35:01;;;;;;;44.10;22.45;;;;;;;;;;4990134;28;105804;-63
2022/03/02 03:37:27;;;;;;;43.88;20.77;;;;;;;;;;4991069;28;105511;-63
2022/03/02 03:39:53;;;;;;;45.53;21.20;;;;;;;;;;4989697;28;107938;-64
2022/03/02 03:42:20;;;;;;;39.88;20.58;;;;;;;;;;4990263;28;106552;-63
2022/03/02 03:44:46;;;;;;;44.80;22.13;;;;;;;;;;4990082;28;107259;-63
2022/03/02 03:47:13;;;;;;;40.60;21.02;;;;;;;;;;4982595;28;107455;-63
2022/03/02 03:49:40;;;;;;;48.42;23.13;;;;;;;;;;4990305;28;106412;-64
2022/03/02 03:52:06;;;;;;;43.40;21.55;;;;;;;;;;4975681;28;107271;-63
2022/03/02 03:54:32;;;;;;;41.45;20.50;;;;;;;;;;4990544;28;106334;-63
2022/03/02 03:56:59;;;;;;;47.00;20.90;;;;;;;;;;4989852;28;106922;-64
2022/03/02 03:59:25;;;;;;;42.00;20.23;;;;;;;;;;4989168;28;107304;-63
2022/03/02 04:01:52;;;;;;;44.90;21.70;;;;;;;;;;4989537;28;106170;-63
2022/03/02 04:04:19;;;;;;;44.65;20.90;;;;;;;;;;4988103;28;106589;-63
2022/03/02 04:06:45;;;;;;;43.90;21.27;;;;;;;;;;4986973;28;107391;-64
2022/03/02 04:09:12;;;;;;;46.70;20.60;;;;;;;;;;4990193;28;106215;-63
2022/03/02 04:11:38;;;;;;;44.13;20.88;;;;;;;;;;4989072;28;106201;-64
2022/03/02 04:14:05;;;;;;;41.67;20.23;;;;;;;;;;4993411;28;106220;-63
2022/03/02 04:16:31;;;;;;;44.25;20.77;;;;;;;;;;4989162;28;107918;-63
2022/03/02 04:18:57;;;;;;;42.75;19.92;;;;;;;;;;4989667;28;106326;-63
2022/03/02 04:21:24;;;;;;;42.42;21.75;;;;;;;;;;4990066;28;106117;-63
2022/03/02 04:23:50;;;;;;;44.83;21.08;;;;;;;;;;4990047;28;107207;-64
2022/03/02 04:26:16;;;;;;;45.80;21.73;;;;;;;;;;4987917;28;106147;-62
2022/03/02 04:28:43;;;;;;;41.05;20.63;;;;;;;;;;4990214;28;106779;-64
2022/03/02 04:31:10;;;;;;;44.30;22.45;;;;;;;;;;4979094;28;106657;-62
2022/03/02 04:33:36;;;;;;;40.92;20.15;;;;;;;;;;4992691;28;107342;-62
2022/03/02 04:36:03;;;;;;;44.15;21.15;;;;;;;;;;4983562;28;106821;-62
2022/03/02 04:38:30;;;;;;;40.55;20.42;;;;;;;;;;4988759;28;107311;-62
2022/03/02 04:40:56;;;;;;;44.45;21.85;;;;;;;;;;4989594;28;106003;-65
2022/03/02 04:43:23;;;;;;;40.15;19.45;;;;;;;;;;4989153;28;106745;-63
2022/03/02 04:45:49;;;;;;;39.53;19.85;;;;;;;;;;4970346;28;107672;-64
2022/03/02 04:48:15;;;;;;;41.40;20.63;;;;;;;;;;4986259;28;106506;-64
2022/03/02 04:50:47;;;;;;;41.08;21.17;;;;;;;;;;4981959;28;106706;-63
2022/03/02 04:53:16;;;;;;;44.13;21.58;;;;;;;;;;4987455;28;108952;-63
2022/03/02 04:55:44;;;;;;;42.97;20.88;;;;;;;;;;4993741;28;107482;-65
2022/03/02 04:58:11;;;;;;;43.25;19.95;;;;;;;;;;4987814;28;107768;-63
2022/03/02 05:00:37;;;;;;;39.72;20.60;;;;;;;;;;4989406;28;105999;-65
2022/03/02 05:03:05;;;;;;;39.97;20.13;;;;;;;;;;4989157;28;106247;-64
2022/03/02 05:05:33;;;;;;;39.50;19.30;;;;;;;;;;4988170;28;106270;-63
2022/03/02 05:07:59;;;;;;;42.20;19.90;;;;;;;;;;4989212;28;105726;-63
2022/03/02 05:10:26;;;;;;;39.28;19.65;;;;;;;;;;4988442;28;106295;-64
2022/03/02 05:12:52;;;;;;;42.97;19.95;;;;;;;;;;4982590;28;106394;-63
2022/03/02 05:15:19;;;;;;;42.28;20.67;;;;;;;;;;4988468;28;106288;-63
2022/03/02 05:17:46;;;;;;;43.78;20.83;;;;;;;;;;4991660;28;106697;-65
2022/03/02 05:20:14;;;;;;;44.83;20.75;;;;;;;;;;4987139;28;105911;-64
2022/03/02 05:22:40;;;;;;;45.30;19.92;;;;;;;;;;4989286;28;105886;-62
2022/03/02 05:25:07;;;;;;;53.95;21.40;;;;;;;;;;4989351;28;106581;-64
2022/03/02 05:27:34;;;;;;;45.45;21.08;;;;;;;;;;4987192;28;106524;-62
2022/03/02 05:30:00;;;;;;;42.83;20.80;;;;;;;;;;4987358;28;106646;-62
2022/03/02 05:32:27;;;;;;;47.53;20.48;;;;;;;;;;4987199;28;106132;-62
2022/03/02 05:34:54;;;;;;;45.58;20.25;;;;;;;;;;4987514;28;108125;-64
2022/03/02 05:37:20;;;;;;;47.00;21.55;;;;;;;;;;4987768;28;106286;-62
2022/03/02 05:39:46;;;;;;;47.53;21.05;;;;;;;;;;4986293;28;107248;-62
2022/03/02 05:42:13;;;;;;;38.58;20.17;;;;;;;;;;4989408;28;105967;-62
2022/03/02 05:44:39;;;;;;;45.83;21.05;;;;;;;;;;5003004;28;106700;-63
2022/03/02 05:47:06;;;;;;;51.15;21.45;;;;;;;;;;4992032;28;107448;-62
2022/03/02 05:49:32;;;;;;;47.70;21.67;;;;;;;;;;4993238;28;106474;-62
2022/03/02 05:51:59;;;;;;;48.33;21.48;;;;;;;;;;4984532;28;107495;-62
2022/03/02 05:54:26;;;;;;;42.50;20.83;;;;;;;;;;4990782;28;106494;-62
2022/03/02 05:56:52;;;;;;;43.70;19.85;;;;;;;;;;4972778;28;106712;-61
2022/03/02 05:59:19;;;;;;;41.60;20.58;;;;;;;;;;4990251;28;106942;-62
2022/03/02 06:01:46;;;;;;;40.45;19.27;;;;;;;;;;4995423;28;106428;-62
2022/03/02 06:04:12;;;;;;;42.53;20.58;;;;;;;;;;4990691;28;106287;-62
2022/03/02 06:06:39;;;;;;;43.95;20.27;;;;;;;;;;4991998;28;106600;-62
2022/03/02 06:09:07;;;;;;;42.50;19.80;;;;;;;;;;4989531;28;106510;-62
2022/03/02 06:11:36;;;;;;;45.38;21.20;;;;;;;;;;4990962;28;107507;-61
2022/03/02 06:14:04;;;;;;;45.65;20.60;;;;;;;;;;4991017;28;106092;-63
2022/03/02 06:16:30;;;;;;;40.22;19.42;;;;;;;;;;4968216;28;106316;-61
2022/03/02 06:18:57;;;;;;;42.97;20.30;;;;;;;;;;4985504;28;107469;-62
2022/03/02 06:21:28;;;;;;;40.67;20.40;;;;;;;;;;4990081;28;106198;-62
2022/03/02 06:23:55;;;;;;;43.15;20.27;;;;;;;;;;4994141;28;106443;-63
2022/03/02 06:26:22;;;;;;;43.67;20.42;;;;;;;;;;4990778;28;105903;-62
2022/03/02 06:28:49;;;;;;;45.42;20.70;;;;;;;;;;4991105;28;106378;-63
2022/03/02 06:31:15;;;;;;;44.28;20.45;;;;;;;;;;4989500;28;107407;-65
2022/03/02 06:33:42;;;;;;;49.65;21.65;;;;;;;;;;4990977;28;106594;-63
2022/03/02 06:36:08;;;;;;;48.08;20.90;;;;;;;;;;4989803;28;107087;-65
2022/03/02 06:38:34;;;;;;;43.70;20.92;;;;;;;;;;4973191;28;107415;-64
2022/03/02 06:41:02;;;;;;;41.90;21.08;;;;;;;;;;4988154;28;108198;-65
2022/03/02 06:43:33;;;;;;;47.35;20.77;;;;;;;;;;4994207;28;105805;-62
2022/03/02 06:46:06;;;;;;;45.10;20.13;;;;;;;;;;4989518;28;106280;-66
2022/03/02 06:48:45;;;;;;;43.25;20.67;;;;;;;;;;4991339;28;106543;-65
2022/03/02 06:51:13;;;;;;;48.83;22.45;;;;;;;;;;4989078;28;108931;-66
2022/03/02 06:53:42;;;;;;;56.10;22.45;;;;;;;;;;4990114;28;106622;-64
2022/03/02 06:56:09;;;;;;;47.55;21.27;;;;;;;;;;4986158;28;108794;-67
2022/03/02 06:58:46;;;;;;;48.47;21.25;;;;;;;;;;4980166;28;106448;-65
2022/03/02 07:01:13;;;;;;;44.85;21.25;;;;;;;;;;4988855;28;106957;-64
2022/03/02 07:03:41;;;;;;;43.25;20.38;;;;;;;;;;4987891;28;105862;-64
2022/03/02 07:06:08;;;;;;;46.10;20.58;;;;;;;;;;4992193;28;107667;-64
2022/03/02 07:08:35;;;;;;;49.30;21.45;;;;;;;;;;4991077;28;106707;-64
2022/03/02 07:11:01;;;;;;;46.97;21.08;;;;;;;;;;4989548;28;106792;-64
2022/03/02 07:13:28;;;;;;;48.13;21.58;;;;;;;;;;4988985;28;105997;-65
2022/03/02 07:15:54;;;;;;;45.40;21.38;;;;;;;;;;4988921;28;107038;-65
2022/03/02 07:18:21;;;;;;;43.53;20.42;;;;;;;;;;4989549;28;106323;-66
2022/03/02 07:20:49;;;;;;;39.47;19.95;;;;;;;;;;4990653;28;106074;-65
2022/03/02 07:23:16;;;;;;;40.90;20.30;;;;;;;;;;4952179;28;107090;-65
2022/03/02 07:25:44;;;;;;;40.00;20.20;;;;;;;;;;4971550;28;107430;-65
2022/03/02 07:28:10;;;;;;;42.72;20.73;;;;;;;;;;4993228;28;106385;-65
2022/03/02 07:30:37;;;;;;;40.58;19.67;;;;;;;;;;4990147;28;107435;-66
2022/03/02 07:33:04;;;;;;;43.10;20.25;;;;;;;;;;4990131;28;106071;-65
2022/03/02 07:35:32;;;;;;;43.08;21.40;;;;;;;;;;4989143;28;106058;-65
2022/03/02 07:37:59;;;;;;;43.00;20.20;;;;;;;;;;4989161;28;106873;-64
2022/03/02 07:40:26;;;;;;;42.35;20.20;;;;;;;;;;4989657;28;106894;-66
2022/03/02 07:42:52;;;;;;;46.13;21.80;;;;;;;;;;4989207;28;106640;-65
2022/03/02 07:45:19;;;;;;;45.97;19.88;;;;;;;;;;4988891;28;106661;-66
2022/03/02 07:47:47;;;;;;;46.60;21.10;;;;;;;;;;4987705;28;106130;-65
2022/03/02 07:50:13;;;;;;;48.22;22.77;;;;;;;;;;4973142;28;106417;-66
2022/03/02 07:52:45;;;;;;;44.40;21.05;;;;;;;;;;4985922;28;106359;-67
2022/03/02 07:55:12;;;;;;;47.53;20.70;;;;;;;;;;4989766;28;107520;-66
2022/03/02 07:57:39;;;;;;;41.20;20.13;;;;;;;;;;4985529;28;107707;-66
2022/03/02 08:00:06;;;;;;;41.58;21.15;;;;;;;;;;4987377;28;106908;-64
2022/03/02 08:02:32;;;;;;;43.90;20.83;;;;;;;;;;4990278;28;107235;-67
2022/03/02 08:05:01;;;;;;;48.42;20.88;;;;;;;;;;4996333;28;106403;-68
2022/03/02 08:07:27;;;;;;;43.70;21.70;;;;;;;;;;4987295;28;106783;-67
2022/03/02 08:09:53;;;;;;;45.28;22.08;;;;;;;;;;4981802;28;106764;-67
2022/03/02 08:12:21;;;;;;;47.15;24.05;;;;;;;;;;4986076;28;108682;-67
2022/03/02 08:14:48;;;;;;;47.25;23.13;;;;;;;;;;4988018;28;106649;-67
2022/03/02 08:17:15;;;;;;;49.35;23.85;;;;;;;;;;4986849;28;107695;-67
2022/03/02 08:19:42;;;;;;;46.33;22.23;;;;;;;;;;4988066;28;106733;-65
2022/03/02 08:22:19;;;;;;;43.60;22.27;;;;;;;;;;4987987;28;107314;-65
2022/03/02 08:24:50;;;;;;;48.17;23.48;;;;;;;;;;4981044;28;108327;-65
2022/03/02 08:27:16;;;;;;;46.45;22.00;;;;;;;;;;4983766;28;106602;-67
2022/03/02 08:29:51;;;;;;;46.50;21.15;;;;;;;;;;4988000;28;106701;-68
2022/03/02 08:32:17;;;;;;;39.47;19.88;;;;;;;;;;4981557;28;107416;-66
2022/03/02 08:34:44;;;;;;;43.33;20.38;;;;;;;;;;4993365;28;106226;-67
2022/03/02 08:37:10;;;;;;;40.83;21.02;;;;;;;;;;4984710;28;107361;-66
2022/03/02 08:39:38;;;;;;;43.60;20.30;;;;;;;;;;4989124;28;106079;-68
2022/03/02 08:42:05;;;;;;;41.92;20.85;;;;;;;;;;4985917;28;106808;-67
2022/03/02 08:44:31;;;;;;;39.83;21.42;;;;;;;;;;4987724;28;107409;-66
2022/03/02 08:46:58;;;;;;;42.50;20.67;;;;;;;;;;4989215;28;106471;-67
2022/03/02 08:49:24;;;;;;;44.45;20.70;;;;;;;;;;4969799;28;106307;-67
2022/03/02 08:51:51;;;;;;;40.80;20.63;;;;;;;;;;4978533;28;109160;-65
2022/03/02 08:54:18;;;;;;;42.25;21.25;;;;;;;;;;4987987;28;105913;-68
2022/03/02 08:56:45;;;;;;;45.50;21.02;;;;;;;;;;4977824;28;107382;-68
2022/03/02 08:59:13;;;;;;;46.28;19.55;;;;;;;;;;4984860;28;108974;-68
2022/03/02 09:01:52;;;;;;;37.65;19.83;;;;;;;;;;4980932;28;108411;-68
2022/03/02 09:04:21;;;;;;;35.90;18.58;;;;;;;;;;4988024;28;106607;-67
2022/03/02 09:06:49;;;;;;;40.58;20.20;;;;;;;;;;4987918;28;106426;-66
2022/03/02 09:09:17;;;;;;;38.67;20.15;;;;;;;;;;4983278;28;107301;-67
2022/03/02 09:11:44;;;;;;;38.08;19.40;;;;;;;;;;4981582;28;109465;-66
2022/03/02 09:14:10;;;;;;;43.08;21.15;;;;;;;;;;4986457;28;106564;-66
2022/03/02 09:16:39;;;;;;;40.95;19.55;;;;;;;;;;4972861;28;106766;-66
2022/03/02 09:19:10;;;;;;;41.63;19.38;;;;;;;;;;4980518;28;106808;-64
2022/03/02 09:21:37;;;;;;;39.30;18.33;;;;;;;;;;4977968;28;107542;-64
2022/03/02 09:24:05;;;;;;;40.17;19.90;;;;;;;;;;4980467;28;107388;-64
2022/03/02 09:26:32;;;;;;;46.50;18.55;;;;;;;;;;4979402;28;106404;-65
2022/03/02 09:29:01;;;;;;;38.15;18.63;;;;;;;;;;4978831;28;106128;-64
2022/03/02 09:31:27;;;;;;;33.13;18.05;;;;;;;;;;4981196;28;107626;-66
2022/03/02 09:33:55;;;;;;;38.90;18.83;;;;;;;;;;4982489;28;107701;-64
2022/03/02 09:36:22;;;;;;;34.08;17.20;;;;;;;;;;4987023;28;107653;-64
2022/03/02 09:38:49;;;;;;;39.17;18.25;;;;;;;;;;4983968;28;107464;-64
2022/03/02 09:41:36;;;;;;;36.33;18.88;;;;;;;;;;4974408;28;107777;-63
2022/03/02 09:44:04;;;;;;;33.80;17.25;;;;;;;;;;4961863;28;109407;-64
2022/03/02 09:46:33;;;;;;;37.00;17.65;;;;;;;;;;4977703;28;106532;-66
2022/03/02 09:49:09;;;;;;;37.35;18.52;;;;;;;;;;4987998;28;106447;-65
2022/03/02 09:51:40;;;;;;;35.75;17.35;;;;;;;;;;4986262;28;107091;-65
2022/03/02 09:54:08;;;;;;;35.78;17.60;;;;;;;;;;4987468;28;106589;-64
2022/03/02 09:56:35;;;;;;;36.20;17.50;;;;;;;;;;4970237;28;105886;-65
2022/03/02 09:59:03;;;;;;;34.53;17.42;;;;;;;;;;4977409;28;107359;-64
2022/03/02 10:01:31;;;;;;;35.88;17.52;;;;;;;;;;4985232;28;108662;-64
2022/03/02 10:04:02;;;;;;;34.50;17.67;;;;;;;;;;4977760;28;106997;-65
2022/03/02 10:06:29;;;;;;;30.33;16.63;;;;;;;;;;4979514;28;106725;-67
2022/03/02 10:08:56;;;;;;;32.10;16.63;;;;;;;;;;4979629;28;107000;-65
2022/03/02 10:11:24;;;;;;;27.77;15.50;;;;;;;;;;4978935;28;107488;-64
2022/03/02 10:13:51;;;;;;;34.55;16.20;;;;;;;;;;4983106;28;108052;-64
2022/03/02 10:16:21;;;;;;;31.67;17.13;;;;;;;;;;4980299;28;106389;-64
2022/03/02 10:18:58;;;;;;;30.42;15.65;;;;;;;;;;4977217;28;107779;-64
2022/03/02 10:21:32;;;;;;;36.72;16.60;;;;;;;;;;4983682;28;106568;-64
2022/03/02 10:23:59;;;;;;;30.95;15.45;;;;;;;;;;4979891;28;106801;-64
2022/03/02 10:26:39;;;;;;;32.88;16.33;;;;;;;;;;4974626;28;107282;-64
2022/03/02 10:29:05;;;;;;;;;;;;;;;;;;4982064;28;107019;-65
2022/03/02 10:31:41;;;;;;;30.52;15.32;;;;;;;;;;4981745;28;137057;-65
2022/03/02 10:34:12;;;;;;;28.20;16.02;;;;;;;;;;4982039;28;107119;-65
2022/03/02 10:36:40;;;;;;;25.40;14.77;;;;;;;;;;4979164;28;109502;-66
2022/03/02 10:39:07;;;;;;;26.23;15.25;;;;;;;;;;4964932;28;108145;-65
2022/03/02 10:41:35;;;;;;;28.45;14.73;;;;;;;;;;4984573;28;106931;-65
2022/03/02 10:44:20;;;;;;;27.00;15.70;;;;;;;;;;4979993;28;108228;-65
2022/03/02 10:46:53;;;;;;;25.20;14.10;;;;;;;;;;4987832;28;106421;-65
2022/03/02 10:49:20;;;;;;;28.58;15.15;;;;;;;;;;4982520;28;108966;-65
2022/03/02 10:51:47;;;;;;;25.10;14.52;;;;;;;;;;4983848;28;108869;-65
2022/03/02 10:54:20;;;;;;;27.58;13.75;;;;;;;;;;4986973;28;106729;-66
2022/03/02 10:56:49;;;;;;;23.75;13.77;;;;;;;;;;4983189;28;107102;-67
2022/03/02 10:59:16;;;;;;;24.73;13.98;;;;;;;;;;4983977;28;107606;-66
2022/03/02 11:01:48;;;;;;;26.00;14.55;;;;;;;;;;4987633;28;106217;-66
2022/03/02 11:04:18;;;;;;;23.45;13.13;;;;;;;;;;4990004;28;107437;-68
2022/03/02 11:06:44;;;;;;;24.17;14.07;;;;;;;;;;4993799;28;106702;-66
2022/03/02 11:09:25;;;;;;;28.17;13.95;;;;;;;;;;4987920;28;107229;-65
2022/03/02 11:11:53;;;;;;;27.55;13.60;;;;;;;;;;4989177;28;107737;-65
2022/03/02 11:14:19;;;;;;;26.20;14.02;;;;;;;;;;4970554;28;106442;-65
2022/03/02 11:16:47;;;;;;;24.67;14.43;;;;;;;;;;4990318;28;106426;-64
2022/03/02 11:19:15;;;;;;;25.60;13.73;;;;;;;;;;4989502;28;107128;-65
2022/03/02 11:21:42;;;;;;;21.38;12.40;;;;;;;;;;4990175;28;106230;-65
2022/03/02 11:24:13;;;;;;;28.38;13.63;;;;;;;;;;4966145;28;108642;-65
2022/03/02 11:26:48;;;;;;;22.27;12.88;;;;;;;;;;4986878;28;107470;-65
2022/03/02 11:29:16;;;;;;;21.20;12.05;;;;;;;;;;4988160;28;107358;-66
2022/03/02 11:31:52;;;;;;;23.77;12.65;;;;;;;;;;4981891;28;108634;-66
2022/03/02 11:34:19;;;;;;;21.92;12.23;;;;;;;;;;4980387;28;109125;-64
2022/03/02 11:36:48;;;;;;;20.30;11.98;;;;;;;;;;4985015;28;107259;-64
2022/03/02 11:39:15;;;;;;;21.40;12.48;;;;;;;;;;4987936;28;107165;-64
2022/03/02 11:41:42;;;;;;;19.77;11.10;;;;;;;;;;4985387;28;108174;-64
2022/03/02 11:44:27;;;;;;;20.60;11.90;;;;;;;;;;4982715;28;109042;-64
2022/03/02 11:46:55;;;;;;;18.08;11.43;;;;;;;;;;4982444;28;106491;-64
2022/03/02 11:49:35;;;;;;;17.20;10.48;;;;;;;;;;4989393;28;107030;-64
2022/03/02 11:52:04;;;;;;;21.17;11.88;;;;;;;;;;4993116;28;107295;-65
2022/03/02 11:54:44;;;;;;;18.33;10.67;;;;;;;;;;4988092;28;106703;-65
2022/03/02 11:57:11;;;;;;;16.52;10.23;;;;;;;;;;4989552;28;107434;-65
2022/03/02 11:59:39;;;;;;;21.55;10.15;;;;;;;;;;4987039;28;107544;-64
2022/03/02 12:02:11;;;;;;;18.00;10.10;;;;;;;;;;4988877;28;106579;-64
2022/03/02 12:04:38;;;;;;;16.60;9.82;;;;;;;;;;4989376;28;106783;-64
2022/03/02 12:07:05;;;;;;;18.02;10.32;;;;;;;;;;4983834;28;107920;-64
2022/03/02 12:09:34;;;;;;;15.32;9.73;;;;;;;;;;4987893;28;106781;-64
2022/03/02 12:12:11;;;;;;;12.60;8.68;;;;;;;;;;4989038;28;107934;-64
2022/03/02 12:14:57;;;;;;;15.50;9.52;;;;;;;;;;4973733;28;108257;-65
2022/03/02 12:17:25;;;;;;;15.73;9.32;;;;;;;;;;4989072;28;106616;-65
2022/03/02 12:19:53;;;;;;;15.65;9.60;;;;;;;;;;4988884;28;108107;-64
2022/03/02 12:22:20;;;;;;;14.13;9.30;;;;;;;;;;4987988;28;107242;-65
2022/03/02 12:24:48;;;;;;;16.98;8.88;;;;;;;;;;4989780;28;107712;-65
2022/03/02 12:27:15;;;;;;;15.77;9.88;;;;;;;;;;4982549;28;106941;-65
2022/03/02 12:29:42;;;;;;;14.43;8.95;;;;;;;;;;4989236;28;107869;-65
2022/03/02 12:32:09;;;;;;;12.63;8.57;;;;;;;;;;4980627;28;107620;-65
2022/03/02 12:34:40;;;;;;;15.88;9.30;;;;;;;;;;4988360;28;109678;-65
2022/03/02 12:37:07;;;;;;;13.13;9.23;;;;;;;;;;4990983;28;106729;-65
2022/03/02 12:39:34;;;;;;;13.80;8.90;;;;;;;;;;4974826;28;108410;-64
2022/03/02 12:42:04;;;;;;;12.60;8.80;;;;;;;;;;4987896;28;107508;-64
2022/03/02 12:44:35;;;;;;;16.23;9.48;;;;;;;;;;4987041;28;108071;-64
2022/03/02 12:47:11;;;;;;;14.40;9.32;;;;;;;;;;4969886;28;108732;-64
2022/03/02 12:49:39;;;;;;;14.77;9.43;;;;;;;;;;4985082;28;107994;-65
2022/03/02 12:52:05;;;;;;;14.75;9.57;;;;;;;;;;4986888;28;108898;-64
2022/03/02 12:54:36;;;;;;;13.55;8.73;;;;;;;;;;4972446;28;109087;-64
2022/03/02 12:57:06;;;;;;;13.95;9.55;;;;;;;;;;4991142;28;108240;-65
2022/03/02 12:59:33;;;;;;;14.75;9.70;;;;;;;;;;4981087;28;108238;-65
2022/03/02 13:02:03;;;;;;;15.45;9.75;;;;;;;;;;4984220;28;108018;-64
2022/03/02 13:04:49;;;;;;;13.95;9.60;;;;;;;;;;4982531;28;108610;-64
2022/03/02 13:07:35;;;;;;;14.32;9.32;;;;;;;;;;4972509;28;108222;-64
2022/03/02 13:10:03;;;;;;;16.45;9.77;;;;;;;;;;4955851;28;107711;-64
2022/03/02 13:12:30;;;;;;;18.08;10.35;;;;;;;;;;4981479;28;108487;-64
2022/03/02 13:14:56;;;;;;;13.07;9.55;;;;;;;;;;4986257;28;109062;-64
2022/03/02 13:17:23;;;;;;;15.85;9.52;;;;;;;;;;4986877;28;108841;-64
2022/03/02 13:19:57;;;;;;;14.48;8.93;;;;;;;;;;4988121;28;108602;-65
2022/03/02 13:22:34;;;;;;;13.45;9.05;;;;;;;;;;4978507;28;107936;-64
2022/03/02 13:25:08;;;;;;;13.82;8.80;;;;;;;;;;4985418;28;108695;-66
2022/03/02 13:27:37;;;;;;;13.75;9.32;;;;;;;;;;4973361;28;108373;-64
2022/03/02 13:30:03;;;;;;;10.77;7.88;;;;;;;;;;4980676;28;108609;-64
2022/03/02 13:32:52;;;;;;;13.32;9.30;;;;;;;;;;4979930;28;108501;-64
2022/03/02 13:35:38;;;;;;;;;;;;;;;;;;4992079;28;109323;-64
2022/03/02 13:38:06;;;;;;;15.95;9.57;;;;;;;;;;4985187;28;118592;-63
2022/03/02 13:40:33;;;;;;;13.90;9.25;;;;;;;;;;4961665;28;108407;-63
2022/03/02 13:43:05;;;;;;;14.05;9.18;;;;;;;;;;4988196;28;108975;-65
2022/03/02 13:45:38;;;;;;;20.10;12.55;;;;;;;;;;4983067;28;108333;-63
2022/03/02 13:48:16;;;;;;;14.82;9.85;;;;;;;;;;4983898;28;109187;-63
2022/03/02 13:51:01;;;;;;;17.38;9.68;;;;;;;;;;4982295;28;107977;-63
2022/03/02 13:53:32;;;;;;;14.30;9.88;;;;;;;;;;4983667;28;108589;-64
2022/03/02 13:56:03;;;;;;;22.52;12.30;;;;;;;;;;4980005;28;109223;-65
2022/03/02 13:58:30;;;;;;;14.18;9.75;;;;;;;;;;4985909;28;108627;-66
2022/03/02 14:01:11;;;;;;;15.63;10.23;;;;;;;;;;4979848;28;110889;-65
2022/03/02 14:03:43;;;;;;;18.60;12.10;;;;;;;;;;4980825;28;108996;-66
2022/03/02 14:06:11;;;;;;;14.55;9.73;;;;;;;;;;4983788;28;107707;-65
2022/03/02 14:08:41;;;;;;;16.77;10.73;;;;;;;;;;4987897;28;107991;-67
2022/03/02 14:11:09;;;;;;;14.68;10.27;;;;;;;;;;4982774;28;107730;-66
2022/03/02 14:13:35;;;;;;;17.83;10.70;;;;;;;;;;4980982;28;110203;-65